createdAt,value
2022-09-01T00:00:14.881Z,100.00
2022-09-01T00:02:45.176Z,100.00
2022-09-01T00:05:13.991Z,100.00
2022-09-01T00:07:45.017Z,100.00
2022-09-01T00:10:13.167Z,100.00
2022-09-01T00:12:41.332Z,100.00
2022-09-01T00:15:12.483Z,100.00
2022-09-01T00:17:40.802Z,100.00
2022-09-01T00:20:11.369Z,100.00
2022-09-01T00:22:39.449Z,100.00
2022-09-01T00:25:08.994Z,100.00
2022-09-01T00:27:37.023Z,100.00
2022-09-01T00:30:05.810Z,100.00
2022-09-01T00:32:35.211Z,100.00
2022-09-01T00:35:03.330Z,100.00
2022-09-01T00:37:31.379Z,100.00
2022-09-01T00:39:59.434Z,100.00
2022-09-01T00:42:27.439Z,100.00
2022-09-01T00:44:55.479Z,100.00
2022-09-01T00:47:23.587Z,100.00
2022-09-01T00:49:53.205Z,100.00
2022-09-01T00:52:22.866Z,100.00
2022-09-01T00:54:53.491Z,100.00
2022-09-01T00:57:22.236Z,100.00
2022-09-01T00:59:53.704Z,100.00
2022-09-01T01:02:22.886Z,100.00
2022-09-01T01:04:52.715Z,100.00
2022-09-01T01:07:23.539Z,100.00
2022-09-01T01:09:52.398Z,100.00
2022-09-01T01:12:20.608Z,100.00
2022-09-01T01:14:50.070Z,100.00
2022-09-01T01:17:18.670Z,100.00
2022-09-01T01:20:05.524Z,100.00
2022-09-01T01:22:57.392Z,100.00
2022-09-01T01:25:26.899Z,100.00
2022-09-01T01:28:04.579Z,100.00
2022-09-01T01:30:36.855Z,100.00
2022-09-01T01:33:05.632Z,100.00
2022-09-01T01:35:34.908Z,100.00
2022-09-01T01:38:07.920Z,100.00
2022-09-01T01:40:38.483Z,100.00
2022-09-01T01:43:07.198Z,100.00
2022-09-01T01:45:35.459Z,100.00
2022-09-01T01:48:08.517Z,100.00
2022-09-01T01:50:38.026Z,100.00
2022-09-01T01:53:10.972Z,100.00
2022-09-01T01:55:43.705Z,100.00
2022-09-01T01:58:14.940Z,100.00
2022-09-01T02:00:44.634Z,100.00
2022-09-01T02:03:17.231Z,100.00
2022-09-01T02:05:46.368Z,100.00
2022-09-01T02:08:15.533Z,100.00
2022-09-01T02:10:46.570Z,100.00
2022-09-01T02:13:17.413Z,100.00
2022-09-01T02:15:46.806Z,100.00
2022-09-01T02:18:18.147Z,100.00
2022-09-01T02:20:47.681Z,100.00
2022-09-01T02:23:20.165Z,100.00
2022-09-01T02:26:14.651Z,100.00
2022-09-01T02:28:42.480Z,100.00
2022-09-01T02:31:11.641Z,100.00
2022-09-01T02:33:45.497Z,100.00
2022-09-01T02:36:15.838Z,100.00
2022-09-01T02:38:46.117Z,100.00
2022-09-01T02:41:21.747Z,100.00
2022-09-01T02:43:50.358Z,100.00
2022-09-01T02:46:23.394Z,100.00
2022-09-01T02:48:53.424Z,100.00
2022-09-01T02:51:25.296Z,100.00
2022-09-01T02:53:53.477Z,100.00
2022-09-01T02:56:25.555Z,100.00
2022-09-01T02:58:55.154Z,100.00
2022-09-01T03:01:26.517Z,100.00
2022-09-01T03:03:56.047Z,100.00
2022-09-01T03:06:24.967Z,100.00
2022-09-01T03:08:53.759Z,100.00
2022-09-01T03:11:24.264Z,100.00
2022-09-01T03:13:52.816Z,100.00
2022-09-01T03:16:22.433Z,100.00
2022-09-01T03:18:51.348Z,100.00
2022-09-01T03:21:20.351Z,100.00
2022-09-01T03:23:49.173Z,100.00
2022-09-01T03:26:19.325Z,100.00
2022-09-01T03:28:48.801Z,100.00
2022-09-01T03:31:18.240Z,100.00
2022-09-01T03:33:46.850Z,100.00
2022-09-01T03:36:22.948Z,100.00
2022-09-01T03:38:51.388Z,100.00
2022-09-01T03:41:22.366Z,100.00
2022-09-01T03:43:54.958Z,100.00
2022-09-01T03:46:24.283Z,100.00
2022-09-01T03:48:54.950Z,100.00
2022-09-01T03:51:23.478Z,100.00
2022-09-01T03:53:54.469Z,100.00
2022-09-01T03:56:24.626Z,100.00
2022-09-01T03:58:54.867Z,100.00
2022-09-01T04:01:23.018Z,100.00
2022-09-01T04:03:52.122Z,100.00
2022-09-01T04:06:25.002Z,100.00
2022-09-01T04:08:57.758Z,100.00
2022-09-01T04:11:26.434Z,100.00
2022-09-01T04:13:55.833Z,100.00
2022-09-01T04:16:43.358Z,100.00
2022-09-01T04:19:19.942Z,100.00
2022-09-01T04:21:50.319Z,100.00
2022-09-01T04:24:19.066Z,100.00
2022-09-01T04:26:49.547Z,100.00
2022-09-01T04:29:27.268Z,100.00
2022-09-01T04:31:56.404Z,100.00
2022-09-01T04:34:24.802Z,100.00
2022-09-01T04:36:54.464Z,100.00
2022-09-01T04:39:23.344Z,100.00
2022-09-01T04:41:51.604Z,100.00
2022-09-01T04:44:22.171Z,100.00
2022-09-01T04:46:50.968Z,100.00
2022-09-01T04:49:22.478Z,100.00
2022-09-01T04:51:54.511Z,100.00
2022-09-01T04:54:24.060Z,100.00
2022-09-01T04:56:53.948Z,100.00
2022-09-01T04:59:27.028Z,100.00
2022-09-01T05:02:00.587Z,100.00
2022-09-01T05:04:32.524Z,100.00
2022-09-01T05:07:01.723Z,100.00
2022-09-01T05:09:36.652Z,100.00
2022-09-01T05:12:16.187Z,100.00
2022-09-01T05:14:48.554Z,100.00
2022-09-01T05:17:21.544Z,100.00
2022-09-01T05:19:50.975Z,100.00
2022-09-01T05:22:23.038Z,100.00
2022-09-01T05:25:02.960Z,100.00
2022-09-01T05:27:31.451Z,100.00
2022-09-01T05:30:01.222Z,100.00
2022-09-01T05:32:30.375Z,100.00
2022-09-01T05:34:58.663Z,100.00
2022-09-01T05:37:30.263Z,100.00
2022-09-01T05:39:58.597Z,100.00
2022-09-01T05:42:27.915Z,100.00
2022-09-01T05:44:55.962Z,100.00
2022-09-01T05:47:26.319Z,100.00
2022-09-01T05:49:58.429Z,100.00
2022-09-01T05:52:27.446Z,100.00
2022-09-01T05:54:56.738Z,100.00
2022-09-01T05:57:35.124Z,100.00
2022-09-01T06:00:10.935Z,100.00
2022-09-01T06:02:43.433Z,100.00
2022-09-01T06:05:17.392Z,100.00
2022-09-01T06:07:47.533Z,100.00
2022-09-01T06:10:16.235Z,100.00
2022-09-01T06:12:45.645Z,100.00
2022-09-01T06:15:18.585Z,100.00
2022-09-01T06:17:52.663Z,100.00
2022-09-01T06:20:22.943Z,100.00
2022-09-01T06:22:52.697Z,100.00
2022-09-01T06:25:22.088Z,100.00
2022-09-01T06:27:52.416Z,100.00
2022-09-01T06:30:24.446Z,100.00
2022-09-01T06:33:13.572Z,100.00
2022-09-01T06:35:47.155Z,100.00
2022-09-01T06:38:17.571Z,100.00
2022-09-01T06:40:48.469Z,100.00
2022-09-01T06:43:20.510Z,100.00
2022-09-01T06:45:54.802Z,100.00
2022-09-01T06:48:30.787Z,100.00
2022-09-01T06:51:16.088Z,100.00
2022-09-01T06:53:50.093Z,100.00
2022-09-01T06:56:19.047Z,100.00
2022-09-01T06:58:48.197Z,100.00
2022-09-01T07:01:19.714Z,100.00
2022-09-01T07:03:51.891Z,100.00
2022-09-01T07:06:59.670Z,100.00
2022-09-01T07:10:05.910Z,100.00
2022-09-01T07:13:04.734Z,100.00
2022-09-01T07:18:22.653Z,100.00
2022-09-01T07:21:36.574Z,100.00
2022-09-01T07:26:33.831Z,100.00
2022-09-01T07:29:04.319Z,100.00
2022-09-01T07:32:48.095Z,100.00
2022-09-01T07:34:46.448Z,100.00
2022-09-01T07:38:47.798Z,100.00
2022-09-01T07:42:30.447Z,100.00
2022-09-01T07:43:20.570Z,100.00
2022-09-01T07:49:29.559Z,100.00
2022-09-01T07:51:50.877Z,100.00
2022-09-01T07:54:25.124Z,100.00
2022-09-01T07:56:55.561Z,100.00
2022-09-01T07:59:25.823Z,100.00
2022-09-01T08:02:01.023Z,100.00
2022-09-01T08:04:29.184Z,100.00
2022-09-01T08:06:57.495Z,100.00
2022-09-01T08:09:38.179Z,100.00
2022-09-01T08:12:08.923Z,100.00
2022-09-01T08:17:53.187Z,100.00
2022-09-01T08:20:23.887Z,100.00
2022-09-01T08:23:13.067Z,100.00
2022-09-01T08:25:44.081Z,100.00
2022-09-01T08:28:13.128Z,100.00
2022-09-01T08:30:52.331Z,100.00
2022-09-01T08:33:22.470Z,100.00
2022-09-01T08:35:50.579Z,100.00
2022-09-01T08:38:20.442Z,100.00
2022-09-01T08:40:56.347Z,100.00
2022-09-01T08:43:31.826Z,100.00
2022-09-01T08:46:06.410Z,100.00
2022-09-01T08:49:23.803Z,100.00
2022-09-01T08:51:30.969Z,100.00
2022-09-01T08:54:03.416Z,100.00
2022-09-01T08:56:36.064Z,100.00
2022-09-01T08:59:04.843Z,100.00
2022-09-01T09:01:58.462Z,100.00
2022-09-01T09:04:37.755Z,100.00
2022-09-01T09:07:10.738Z,100.00
2022-09-01T09:09:49.342Z,100.00
2022-09-01T09:12:31.180Z,100.00
2022-09-01T09:15:04.345Z,100.00
2022-09-01T09:17:38.333Z,100.00
2022-09-01T09:20:07.206Z,100.00
2022-09-01T09:22:35.408Z,100.00
2022-09-01T09:25:08.189Z,100.00
2022-09-01T09:27:39.017Z,100.00
2022-09-01T09:30:11.319Z,100.00
2022-09-01T09:33:16.108Z,100.00
2022-09-01T09:35:36.329Z,100.00
2022-09-01T09:38:21.480Z,100.00
2022-09-01T09:41:16.514Z,100.00
2022-09-01T09:43:49.688Z,100.00
2022-09-01T09:46:24.744Z,100.00
2022-09-01T09:49:11.014Z,100.00
2022-09-01T09:51:39.619Z,100.00
2022-09-01T09:54:15.445Z,100.00
2022-09-01T09:56:44.492Z,100.00
2022-09-01T09:59:45.940Z,100.00
2022-09-01T10:02:27.840Z,100.00
2022-09-01T10:04:57.189Z,100.00
2022-09-01T10:07:27.474Z,100.00
2022-09-01T10:09:56.420Z,100.00
2022-09-01T10:12:25.584Z,100.00
2022-09-01T10:14:57.233Z,100.00
2022-09-01T10:17:29.728Z,100.00
2022-09-01T10:20:06.870Z,100.00
2022-09-01T10:22:35.898Z,100.00
2022-09-01T10:25:05.802Z,100.00
2022-09-01T10:27:36.263Z,100.00
2022-09-01T10:30:12.589Z,100.00
2022-09-01T10:32:50.818Z,100.00
2022-09-01T10:35:23.715Z,100.00
2022-09-01T10:37:52.587Z,100.00
2022-09-01T10:40:35.005Z,100.00
2022-09-01T10:43:18.129Z,100.00
2022-09-01T10:45:51.929Z,100.00
2022-09-01T10:48:35.980Z,100.00
2022-09-01T10:51:50.164Z,100.00
2022-09-01T10:54:39.051Z,100.00
2022-09-01T10:57:12.230Z,100.00
2022-09-01T10:59:45.062Z,100.00
2022-09-01T11:02:27.674Z,100.00
2022-09-01T11:05:14.338Z,100.00
2022-09-01T11:08:01.577Z,100.00
2022-09-01T11:10:41.057Z,100.00
2022-09-01T11:13:24.418Z,100.00
2022-09-01T11:15:52.570Z,100.00
2022-09-01T11:18:27.339Z,100.00
2022-09-01T11:21:15.218Z,100.00
2022-09-01T11:23:46.117Z,100.00
2022-09-01T11:26:29.395Z,100.00
2022-09-01T11:28:57.687Z,100.00
2022-09-01T11:31:33.372Z,100.00
2022-09-01T11:34:11.336Z,100.00
2022-09-01T11:36:48.318Z,100.00
2022-09-01T11:39:30.001Z,100.00
2022-09-01T11:42:04.248Z,100.00
2022-09-01T11:44:37.520Z,100.00
2022-09-01T11:47:10.775Z,100.00
2022-09-01T11:49:49.922Z,100.00
2022-09-01T11:52:19.186Z,100.00
2022-09-01T11:54:50.266Z,100.00
2022-09-01T11:57:23.623Z,100.00
2022-09-01T11:59:51.752Z,100.00
2022-09-01T12:02:21.203Z,100.00
2022-09-01T12:04:51.742Z,100.00
2022-09-01T12:07:28.283Z,100.00
2022-09-01T12:09:56.688Z,100.00
2022-09-01T12:12:29.840Z,100.00
2022-09-01T12:15:05.813Z,100.00
2022-09-01T12:17:35.031Z,100.00
2022-09-01T12:20:28.897Z,100.00
2022-09-01T12:22:58.394Z,100.00
2022-09-01T12:25:27.700Z,100.00
2022-09-01T12:27:58.482Z,100.00
2022-09-01T12:30:26.970Z,100.00
2022-09-01T12:33:22.938Z,100.00
2022-09-01T12:35:45.242Z,100.00
2022-09-01T12:38:30.586Z,100.00
2022-09-01T12:41:00.051Z,100.00
2022-09-01T12:43:29.247Z,100.00
2022-09-01T12:45:59.891Z,100.00
2022-09-01T12:48:30.074Z,100.00
2022-09-01T12:51:01.460Z,100.00
2022-09-01T12:53:31.762Z,100.00
2022-09-01T12:56:07.571Z,100.00
2022-09-01T12:58:35.726Z,96.27
2022-09-01T13:01:07.062Z,91.58
2022-09-01T13:03:44.118Z,85.18
2022-09-01T13:06:13.510Z,84.12
2022-09-01T13:08:43.222Z,91.67
2022-09-01T13:11:14.694Z,86.18
2022-09-01T13:13:42.932Z,90.66
2022-09-01T13:16:12.940Z,93.65
2022-09-01T13:21:32.763Z,100.00
2022-09-01T13:24:00.895Z,100.00
2022-09-01T13:26:31.291Z,100.00
2022-09-01T13:28:59.439Z,100.00
2022-09-01T13:31:29.411Z,100.00
2022-09-01T13:34:21.929Z,100.00
2022-09-01T13:36:51.582Z,100.00
2022-09-01T13:39:21.207Z,99.52
2022-09-01T13:41:49.452Z,95.38
2022-09-01T13:44:19.791Z,87.36
2022-09-01T13:49:44.087Z,94.29
2022-09-01T13:52:33.734Z,95.09
2022-09-01T13:55:05.197Z,97.71
2022-09-01T13:57:36.964Z,95.32
2022-09-01T14:00:12.798Z,100.00
2022-09-01T14:02:43.130Z,100.00
2022-09-01T14:07:40.419Z,100.00
2022-09-01T14:10:14.186Z,100.00
2022-09-01T14:12:49.045Z,100.00
2022-09-01T14:15:25.140Z,100.00
2022-09-01T14:17:57.128Z,100.00
2022-09-01T14:20:27.975Z,100.00
2022-09-01T14:22:57.397Z,100.00
2022-09-01T14:25:27.978Z,100.00
2022-09-01T14:27:58.468Z,100.00
2022-09-01T14:30:31.620Z,100.00
2022-09-01T14:33:03.782Z,100.00
2022-09-01T14:35:33.067Z,100.00
2022-09-01T14:38:02.650Z,100.00
2022-09-01T14:40:30.734Z,100.00
2022-09-01T14:42:58.826Z,92.00
2022-09-01T14:45:28.694Z,89.68
2022-09-01T14:47:58.580Z,99.90
2022-09-01T14:50:26.671Z,90.87
2022-09-01T14:52:55.966Z,85.43
2022-09-01T14:55:26.422Z,83.54
2022-09-01T14:57:55.039Z,80.95
2022-09-01T15:00:24.835Z,77.58
2022-09-01T15:02:53.871Z,81.16
2022-09-01T15:05:24.542Z,82.37
2022-09-01T15:07:55.161Z,78.99
2022-09-01T15:10:33.094Z,81.75
2022-09-01T15:13:04.731Z,84.68
2022-09-01T15:15:33.358Z,84.10
2022-09-01T15:18:07.754Z,83.93
2022-09-01T15:20:46.242Z,82.66
2022-09-01T15:23:15.014Z,88.88
2022-09-01T15:25:44.428Z,81.28
2022-09-01T15:28:12.935Z,82.08
2022-09-01T15:30:41.449Z,84.12
2022-09-01T15:33:14.795Z,84.91
2022-09-01T15:35:46.512Z,82.64
2022-09-01T15:38:16.238Z,77.57
2022-09-01T15:40:57.250Z,82.21
2022-09-01T15:43:27.389Z,84.30
2022-09-01T15:45:58.063Z,86.39
2022-09-01T15:48:26.420Z,80.82
2022-09-01T15:50:54.961Z,77.45
2022-09-01T15:53:25.123Z,78.06
2022-09-01T15:55:57.417Z,77.33
2022-09-01T15:58:30.448Z,79.51
2022-09-01T16:01:07.407Z,85.76
2022-09-01T16:03:35.486Z,82.78
2022-09-01T16:06:03.619Z,83.97
2022-09-01T16:08:31.723Z,82.92
2022-09-01T16:11:02.296Z,86.56
2022-09-01T16:13:30.397Z,85.58
2022-09-01T16:16:03.631Z,90.03
2022-09-01T16:18:34.509Z,84.59
2022-09-01T16:21:05.119Z,80.65
2022-09-01T16:23:38.088Z,78.04
2022-09-01T16:26:07.908Z,80.37
2022-09-01T16:28:37.058Z,79.58
2022-09-01T16:31:07.947Z,78.04
2022-09-01T16:36:17.132Z,86.64
2022-09-01T16:38:48.755Z,90.03
2022-09-01T16:41:31.556Z,92.29
2022-09-01T16:44:03.488Z,96.46
2022-09-01T16:46:34.750Z,95.51
2022-09-01T16:49:09.368Z,97.84
2022-09-01T16:51:44.471Z,100.00
2022-09-01T16:54:20.690Z,99.92
2022-09-01T16:56:54.752Z,100.00
2022-09-01T16:59:29.237Z,100.00
2022-09-01T17:02:04.403Z,100.00
2022-09-01T17:04:36.935Z,100.00
2022-09-01T17:07:09.175Z,100.00
2022-09-01T17:09:40.472Z,100.00
2022-09-01T17:12:26.051Z,100.00
2022-09-01T17:14:57.597Z,100.00
2022-09-01T17:17:35.445Z,100.00
2022-09-01T17:20:05.448Z,100.00
2022-09-01T17:22:34.646Z,100.00
2022-09-01T17:25:04.727Z,100.00
2022-09-01T17:27:37.660Z,100.00
2022-09-01T17:30:07.068Z,100.00
2022-09-01T17:32:48.175Z,100.00
2022-09-01T17:35:20.475Z,100.00
2022-09-01T17:37:56.114Z,100.00
2022-09-01T17:40:27.225Z,100.00
2022-09-01T17:43:02.556Z,100.00
2022-09-01T17:45:33.472Z,100.00
2022-09-01T17:48:06.047Z,100.00
2022-09-01T17:50:42.758Z,100.00
2022-09-01T17:53:17.847Z,100.00
2022-09-01T17:55:50.285Z,100.00
2022-09-01T17:58:24.521Z,100.00
2022-09-01T18:00:57.951Z,100.00
2022-09-01T18:03:37.154Z,100.00
2022-09-01T18:06:08.466Z,100.00
2022-09-01T18:08:40.185Z,100.00
2022-09-01T18:11:12.632Z,100.00
2022-09-01T18:13:53.166Z,100.00
2022-09-01T18:16:24.432Z,100.00
2022-09-01T18:18:53.199Z,100.00
2022-09-01T18:21:22.489Z,100.00
2022-09-01T18:23:52.439Z,100.00
2022-09-01T18:26:24.075Z,100.00
2022-09-01T18:28:55.465Z,100.00
2022-09-01T18:31:46.666Z,100.00
2022-09-01T18:34:31.210Z,100.00
2022-09-01T18:37:07.115Z,100.00
2022-09-01T18:39:44.545Z,100.00
2022-09-01T18:42:18.504Z,100.00
2022-09-01T18:44:53.679Z,100.00
2022-09-01T18:47:25.536Z,100.00
2022-09-01T18:49:56.781Z,100.00
2022-09-01T18:52:42.160Z,100.00
2022-09-01T18:55:16.208Z,100.00
2022-09-01T18:57:48.011Z,100.00
2022-09-01T19:00:19.645Z,100.00
2022-09-01T19:03:04.634Z,100.00
2022-09-01T19:05:39.395Z,100.00
2022-09-01T19:08:11.568Z,100.00
2022-09-01T19:10:45.042Z,100.00
2022-09-01T19:13:19.054Z,100.00
2022-09-01T19:15:52.778Z,100.00
2022-09-01T19:18:26.318Z,100.00
2022-09-01T19:20:58.054Z,100.00
2022-09-01T19:23:30.182Z,100.00
2022-09-01T19:26:03.173Z,100.00
2022-09-01T19:28:36.087Z,100.00
2022-09-01T19:31:10.138Z,100.00
2022-09-01T19:33:40.429Z,100.00
2022-09-01T19:36:12.895Z,100.00
2022-09-01T19:38:44.970Z,100.00
2022-09-01T19:41:15.600Z,100.00
2022-09-01T19:43:43.954Z,100.00
2022-09-01T19:46:22.398Z,100.00
2022-09-01T19:48:52.779Z,100.00
2022-09-01T19:51:23.494Z,100.00
2022-09-01T19:53:57.175Z,100.00
2022-09-01T19:56:29.015Z,100.00
2022-09-01T19:59:01.016Z,100.00
2022-09-01T20:01:38.799Z,100.00
2022-09-01T20:04:15.923Z,100.00
2022-09-01T20:06:44.879Z,100.00
2022-09-01T20:09:15.251Z,100.00
2022-09-01T20:11:47.223Z,100.00
2022-09-01T20:14:21.531Z,100.00
2022-09-01T20:16:53.221Z,100.00
2022-09-01T20:19:26.564Z,100.00
2022-09-01T20:21:54.859Z,100.00
2022-09-01T20:24:30.311Z,100.00
2022-09-01T20:27:01.609Z,100.00
2022-09-01T20:29:35.915Z,100.00
2022-09-01T20:32:05.785Z,100.00
2022-09-01T20:34:37.595Z,100.00
2022-09-01T20:37:09.922Z,100.00
2022-09-01T20:39:57.714Z,100.00
2022-09-01T20:42:31.415Z,100.00
2022-09-01T20:45:00.851Z,100.00
2022-09-01T20:47:31.595Z,100.00
2022-09-01T20:50:01.099Z,100.00
2022-09-01T20:52:34.680Z,100.00
2022-09-01T20:55:10.907Z,100.00
2022-09-01T20:57:42.864Z,100.00
2022-09-01T21:00:16.854Z,100.00
2022-09-01T21:02:51.391Z,100.00
2022-09-01T21:05:28.177Z,100.00
2022-09-01T21:08:01.728Z,100.00
2022-09-01T21:10:34.615Z,100.00
2022-09-01T21:13:11.505Z,100.00
2022-09-01T21:15:43.770Z,100.00
2022-09-01T21:18:24.596Z,100.00
2022-09-01T21:20:57.610Z,100.00
2022-09-01T21:23:29.107Z,100.00
2022-09-01T21:25:57.492Z,100.00
2022-09-01T21:28:27.844Z,100.00
2022-09-01T21:30:57.761Z,100.00
2022-09-01T21:33:28.841Z,100.00
2022-09-01T21:35:57.777Z,100.00
2022-09-01T21:38:25.837Z,100.00
2022-09-01T21:40:54.715Z,100.00
2022-09-01T21:43:24.619Z,100.00
2022-09-01T21:45:52.785Z,100.00
2022-09-01T21:48:20.975Z,100.00
2022-09-01T21:50:50.400Z,100.00
2022-09-01T21:53:18.526Z,100.00
2022-09-01T21:55:46.626Z,100.00
2022-09-01T21:58:14.776Z,100.00
2022-09-01T22:02:37.319Z,100.00
2022-09-01T22:05:09.040Z,100.00
2022-09-01T22:07:40.332Z,100.00
2022-09-01T22:10:11.998Z,100.00
2022-09-01T22:12:42.555Z,100.00
2022-09-01T22:15:13.424Z,100.00
2022-09-01T22:17:43.429Z,100.00
2022-09-01T22:20:13.476Z,100.00
2022-09-01T22:22:42.145Z,100.00
2022-09-01T22:25:13.754Z,100.00
2022-09-01T22:27:42.175Z,100.00
2022-09-01T22:30:11.298Z,100.00
2022-09-01T22:32:45.234Z,100.00
2022-09-01T22:35:15.139Z,100.00
2022-09-01T22:37:43.638Z,100.00
2022-09-01T22:40:13.331Z,100.00
2022-09-01T22:42:42.783Z,100.00
2022-09-01T22:45:12.988Z,100.00
2022-09-01T22:47:44.862Z,100.00
2022-09-01T22:50:13.454Z,100.00
2022-09-01T22:52:42.004Z,100.00
2022-09-01T22:55:13.578Z,100.00
2022-09-01T22:57:42.098Z,100.00
2022-09-01T23:00:11.667Z,100.00
2022-09-01T23:02:40.534Z,100.00
2022-09-01T23:05:11.414Z,100.00
2022-09-01T23:07:39.985Z,100.00
2022-09-01T23:10:10.172Z,100.00
2022-09-01T23:12:38.667Z,100.00
2022-09-01T23:15:08.346Z,100.00
2022-09-01T23:17:37.901Z,100.00
2022-09-01T23:20:08.974Z,100.00
2022-09-01T23:22:39.256Z,100.00
2022-09-01T23:25:08.727Z,100.00
2022-09-01T23:27:37.854Z,100.00
2022-09-01T23:30:09.084Z,100.00
2022-09-01T23:32:37.589Z,100.00
2022-09-01T23:35:06.838Z,100.00
2022-09-01T23:37:35.188Z,100.00
2022-09-01T23:40:06.137Z,100.00
2022-09-01T23:42:35.060Z,100.00
2022-09-01T23:45:03.434Z,100.00
2022-09-01T23:47:31.968Z,100.00
2022-09-01T23:50:03.214Z,100.00
2022-09-01T23:52:31.524Z,100.00
2022-09-01T23:54:59.902Z,100.00
2022-09-01T23:57:29.692Z,100.00
2022-09-01T23:59:58.947Z,100.00
